createdAt,value
2023-03-04T00:02:35.392Z,11.91
2023-03-04T00:14:35.337Z,11.88
2023-03-04T00:26:35.377Z,11.87
2023-03-04T00:38:35.361Z,11.87
2023-03-04T00:50:39.611Z,11.84
2023-03-04T01:02:35.468Z,11.83
2023-03-04T01:14:35.427Z,11.83
2023-03-04T01:26:35.916Z,11.81
2023-03-04T01:38:35.322Z,11.79
2023-03-04T01:50:35.358Z,11.77
2023-03-04T02:02:35.329Z,11.75
2023-03-04T02:14:35.336Z,11.75
2023-03-04T02:26:35.402Z,11.73
2023-03-04T02:38:35.329Z,11.73
2023-03-04T02:50:35.447Z,11.71
2023-03-04T03:02:35.366Z,11.70
2023-03-04T03:14:35.374Z,11.67
2023-03-04T03:26:35.371Z,11.67
2023-03-04T03:38:35.324Z,11.64
2023-03-04T03:50:35.409Z,11.63
2023-03-04T04:02:35.526Z,11.63
2023-03-04T04:14:35.334Z,11.60
2023-03-04T04:26:35.441Z,11.60
2023-03-04T04:38:35.391Z,11.59
2023-03-04T04:50:35.326Z,11.57
2023-03-04T05:02:35.322Z,11.56
2023-03-04T05:14:35.330Z,11.54
2023-03-04T05:26:35.331Z,11.53
2023-03-04T05:38:35.330Z,11.50
2023-03-04T05:50:35.571Z,11.49
2023-03-04T06:02:35.427Z,11.49
2023-03-04T06:14:35.360Z,11.47
2023-03-04T06:26:35.414Z,11.46
2023-03-04T06:38:35.332Z,11.43
2023-03-04T06:50:35.335Z,11.42
2023-03-04T07:02:35.413Z,11.41
2023-03-04T07:14:35.769Z,11.41
2023-03-04T07:26:35.395Z,11.40
2023-03-04T07:38:35.331Z,11.41
2023-03-04T07:50:35.333Z,11.40
2023-03-04T08:02:35.523Z,11.38
2023-03-04T08:14:35.412Z,11.38
2023-03-04T08:26:35.319Z,11.38
2023-03-04T08:38:35.332Z,11.36
2023-03-04T08:50:35.355Z,11.37
2023-03-04T09:02:35.328Z,11.37
2023-03-04T09:14:35.440Z,11.36
2023-03-04T09:26:35.417Z,11.37
2023-03-04T09:38:35.356Z,11.37
2023-03-04T09:50:35.366Z,11.38
2023-03-04T10:02:42.327Z,11.38
2023-03-04T10:14:35.349Z,11.40
2023-03-04T10:26:35.332Z,11.40
2023-03-04T10:38:35.314Z,11.40
2023-03-04T10:50:35.358Z,11.42
2023-03-04T11:02:36.164Z,11.55
2023-03-04T11:14:35.386Z,11.63
2023-03-04T11:26:35.298Z,11.59
2023-03-04T11:38:35.312Z,11.58
2023-03-04T11:50:35.333Z,11.58
2023-03-04T12:02:36.294Z,11.62
2023-03-04T12:14:35.410Z,11.63
2023-03-04T12:26:35.396Z,11.63
2023-03-04T12:38:35.358Z,11.67
2023-03-04T12:50:35.391Z,11.64
2023-03-04T13:02:35.466Z,11.70
2023-03-04T13:14:35.350Z,11.69
2023-03-04T13:26:35.404Z,11.67
2023-03-04T13:38:35.316Z,11.67
2023-03-04T13:50:37.574Z,11.67
2023-03-04T14:02:35.325Z,11.65
2023-03-04T14:14:37.564Z,11.66
2023-03-04T14:26:35.327Z,11.63
2023-03-04T14:38:35.334Z,11.64
2023-03-04T14:50:37.668Z,11.64
2023-03-04T15:02:35.383Z,11.62
2023-03-04T15:14:35.425Z,11.63
2023-03-04T15:26:41.400Z,11.61
2023-03-04T15:38:35.346Z,11.59
2023-03-04T15:50:35.390Z,11.58
2023-03-04T16:02:35.334Z,11.57
2023-03-04T16:14:35.338Z,11.56
2023-03-04T16:26:37.642Z,11.55
2023-03-04T16:38:35.333Z,11.52
2023-03-04T16:50:35.332Z,11.52
2023-03-04T17:02:35.428Z,11.50
2023-03-04T17:14:35.316Z,11.47
2023-03-04T17:26:35.333Z,11.46
2023-03-04T17:38:35.361Z,11.44
2023-03-04T17:50:35.447Z,11.44
2023-03-04T18:02:35.443Z,11.41
2023-03-04T18:14:35.363Z,11.39
2023-03-04T18:26:36.496Z,11.38
2023-03-04T18:38:35.333Z,11.37
2023-03-04T18:50:35.458Z,11.36
2023-03-04T19:02:35.377Z,11.34
2023-03-04T19:14:35.432Z,11.31
2023-03-04T19:26:35.366Z,11.30
2023-03-04T19:38:35.359Z,11.28
2023-03-04T19:50:35.346Z,11.27
2023-03-04T20:02:35.418Z,11.25
2023-03-04T20:14:35.350Z,11.25
2023-03-04T20:26:35.321Z,11.23
2023-03-04T20:38:35.330Z,11.22
2023-03-04T20:50:35.499Z,11.19
2023-03-04T21:02:35.415Z,11.19
2023-03-04T21:14:35.461Z,11.16
2023-03-04T21:26:35.370Z,11.15
2023-03-04T21:38:35.636Z,11.15
2023-03-04T21:50:35.460Z,11.13
2023-03-04T22:02:35.364Z,11.11
2023-03-04T22:14:35.349Z,11.11
2023-03-04T22:26:35.457Z,11.09
2023-03-04T22:38:35.366Z,11.09
2023-03-04T22:50:35.478Z,11.07
2023-03-04T23:02:35.428Z,11.07
2023-03-04T23:14:35.466Z,11.04
2023-03-04T23:26:35.351Z,11.03
2023-03-04T23:38:35.355Z,11.03
2023-03-04T23:50:35.370Z,11.03
